Boca Chica, Texas
Current Conditions -  °F | °C
As of 12:53 PM on Sunday 23 Nov 2014 (Local Time) from KBRO Reporting Station
Clear Clear  
Wind Chill: 82°   Ceiling: Unl
Heat Index: 82°   Visibility: 10mi
Dew Point: 58°   Wind: 9mph
Humidity: 44%   Direction: 190°S
Pressure: 29.7"   Gusts: NA
Location:  26.0002°N, 97.5729°W
Report Text: KBRO 231853Z 19008KT 10SM CLR 28/14 A2970 RMK AO2 SLP055 T02780144
Loading
Personal Weather Stations






























Interactive Weather Map New forecast layout! Learn more

10-Day Weather Forecast

Advertisements
Track Severe Weather on mobile